首页
METAR-TAF:

METAR-TAF

机场 :

大加那利机场

大加那利岛, 西班牙

纬度: 27-56N, 经度: 015-23W, 海拔: 23米

当前天气观测

该预报发布于41分钟前的22:30 UTC
风速16节,风向
温度 19°C
湿度 73%
气压 1018 hPa
能见度10公里或以上
少量云层高于2500英尺

METAR: GCLP 202230Z 35016KT 9999 FEW025 19/14 Q1018 NOSIG

时间: 00:11 (23:11 UTC)

预报

该预报发布于3小时和11分钟前的20:00 UTC
预报有效从20日的 21点(UTC)到 21日的 21点(UTC)
风速18节,风向
能见度10公里或以上
多云层高于3000英尺

TAF: GCLP 202000Z 2021/2121 36018KT 9999 BKN030 TX22/2114Z TN17/2106Z

超过4000个机场的气象观测和天气预报(METAR&TAF报告)。

可查询的气象台以黄色和红色小点在地图上表示。

将鼠标移到小点上方,可查看气象台名称。

然后点击查看天气观测和预报。

如需切换地图:点击带黑十字的绿色按钮放大地图;点击带横线的绿色按钮缩小地图;或者点击绿色箭头查看邻近地区的地图。


METAR-TAF: